sensor_id;sensor_type;location;lat;lon;timestamp;temperature;humidity
41533;DHT22;27262;-35.248;149.138;2023-03-01T00:00:17;24.40;58.90
41533;DHT22;27262;-35.248;149.138;2023-03-01T00:02:47;24.40;58.80
41533;DHT22;27262;-35.248;149.138;2023-03-01T00:05:17;24.40;58.70
41533;DHT22;27262;-35.248;149.138;2023-03-01T00:07:48;24.40;58.60
41533;DHT22;27262;-35.248;149.138;2023-03-01T00:10:18;24.50;58.60
41533;DHT22;27262;-35.248;149.138;2023-03-01T00:12:48;24.50;58.50
41533;DHT22;27262;-35.248;149.138;2023-03-01T00:15:19;24.50;58.50
41533;DHT22;27262;-35.248;149.138;2023-03-01T00:17:49;24.50;58.30
41533;DHT22;27262;-35.248;149.138;2023-03-01T00:20:19;24.50;58.20
41533;DHT22;27262;-35.248;149.138;2023-03-01T00:22:50;24.60;58.20
41533;DHT22;27262;-35.248;149.138;2023-03-01T00:25:20;24.60;58.10
41533;DHT22;27262;-35.248;149.138;2023-03-01T00:27:50;24.60;58.20
41533;DHT22;27262;-35.248;149.138;2023-03-01T00:30:21;24.60;58.00
41533;DHT22;27262;-35.248;149.138;2023-03-01T00:32:51;24.70;58.00
41533;DHT22;27262;-35.248;149.138;2023-03-01T00:35:22;24.60;57.90
41533;DHT22;27262;-35.248;149.138;2023-03-01T00:37:52;24.60;57.90
41533;DHT22;27262;-35.248;149.138;2023-03-01T00:40:28;24.60;57.90
41533;DHT22;27262;-35.248;149.138;2023-03-01T00:42:58;24.60;58.00
41533;DHT22;27262;-35.248;149.138;2023-03-01T00:45:29;24.60;58.10
41533;DHT22;27262;-35.248;149.138;2023-03-01T00:48:00;24.50;58.10
41533;DHT22;27262;-35.248;149.138;2023-03-01T00:50:31;24.50;58.20
41533;DHT22;27262;-35.248;149.138;2023-03-01T00:53:01;24.50;58.20
41533;DHT22;27262;-35.248;149.138;2023-03-01T00:55:31;24.50;58.30
41533;DHT22;27262;-35.248;149.138;2023-03-01T00:58:02;24.50;58.40
41533;DHT22;27262;-35.248;149.138;2023-03-01T01:00:32;24.50;58.40
41533;DHT22;27262;-35.248;149.138;2023-03-01T01:03:03;24.50;58.50
41533;DHT22;27262;-35.248;149.138;2023-03-01T01:05:35;24.50;58.50
41533;DHT22;27262;-35.248;149.138;2023-03-01T01:08:05;24.50;58.60
41533;DHT22;27262;-35.248;149.138;2023-03-01T01:10:36;24.50;58.60
41533;DHT22;27262;-35.248;149.138;2023-03-01T01:13:06;24.50;58.70
41533;DHT22;27262;-35.248;149.138;2023-03-01T01:15:38;24.50;58.80
41533;DHT22;27262;-35.248;149.138;2023-03-01T01:18:08;24.40;58.70
41533;DHT22;27262;-35.248;149.138;2023-03-01T01:20:38;24.50;58.90
41533;DHT22;27262;-35.248;149.138;2023-03-01T01:23:09;24.40;58.90
41533;DHT22;27262;-35.248;149.138;2023-03-01T01:25:39;24.50;58.90
41533;DHT22;27262;-35.248;149.138;2023-03-01T01:28:09;24.50;59.00
41533;DHT22;27262;-35.248;149.138;2023-03-01T01:30:40;24.40;58.90
41533;DHT22;27262;-35.248;149.138;2023-03-01T01:33:10;24.40;58.90
41533;DHT22;27262;-35.248;149.138;2023-03-01T01:35:40;24.40;59.00
41533;DHT22;27262;-35.248;149.138;2023-03-01T01:38:12;24.40;59.10
41533;DHT22;27262;-35.248;149.138;2023-03-01T01:40:46;24.40;59.10
41533;DHT22;27262;-35.248;149.138;2023-03-01T01:43:29;24.40;59.10
41533;DHT22;27262;-35.248;149.138;2023-03-01T01:46:15;24.40;59.20
41533;DHT22;27262;-35.248;149.138;2023-03-01T01:49:14;24.40;59.20
41533;DHT22;27262;-35.248;149.138;2023-03-01T01:51:42;24.40;59.20
41533;DHT22;27262;-35.248;149.138;2023-03-01T01:54:18;24.40;59.30
41533;DHT22;27262;-35.248;149.138;2023-03-01T01:57:00;24.40;59.30
41533;DHT22;27262;-35.248;149.138;2023-03-01T01:59:33;24.40;59.30
41533;DHT22;27262;-35.248;149.138;2023-03-01T02:02:04;24.40;59.60
41533;DHT22;27262;-35.248;149.138;2023-03-01T02:04:35;24.40;59.60
41533;DHT22;27262;-35.248;149.138;2023-03-01T02:07:24;24.40;59.80
41533;DHT22;27262;-35.248;149.138;2023-03-01T02:09:54;24.50;59.10
41533;DHT22;27262;-35.248;149.138;2023-03-01T02:12:25;24.50;59.20
41533;DHT22;27262;-35.248;149.138;2023-03-01T02:14:55;24.50;59.20
41533;DHT22;27262;-35.248;149.138;2023-03-01T02:17:26;24.50;59.20
41533;DHT22;27262;-35.248;149.138;2023-03-01T02:19:59;24.60;59.20
41533;DHT22;27262;-35.248;149.138;2023-03-01T02:22:37;24.60;59.10
41533;DHT22;27262;-35.248;149.138;2023-03-01T02:28:19;24.70;59.00
41533;DHT22;27262;-35.248;149.138;2023-03-01T02:30:50;24.70;59.00
41533;DHT22;27262;-35.248;149.138;2023-03-01T02:33:39;24.70;59.20
41533;DHT22;27262;-35.248;149.138;2023-03-01T02:36:14;24.70;59.30
41533;DHT22;27262;-35.248;149.138;2023-03-01T02:38:46;24.70;59.20
41533;DHT22;27262;-35.248;149.138;2023-03-01T02:41:18;24.80;59.80
41533;DHT22;27262;-35.248;149.138;2023-03-01T02:43:49;24.90;59.00
41533;DHT22;27262;-35.248;149.138;2023-03-01T02:46:24;24.80;59.00
41533;DHT22;27262;-35.248;149.138;2023-03-01T02:48:57;24.90;59.00
41533;DHT22;27262;-35.248;149.138;2023-03-01T02:56:49;24.90;59.50
41533;DHT22;27262;-35.248;149.138;2023-03-01T02:59:22;24.90;59.60
41533;DHT22;27262;-35.248;149.138;2023-03-01T03:01:54;25.00;59.60
41533;DHT22;27262;-35.248;149.138;2023-03-01T03:04:24;25.00;59.60
41533;DHT22;27262;-35.248;149.138;2023-03-01T03:06:55;25.00;59.20
41533;DHT22;27262;-35.248;149.138;2023-03-01T03:09:25;25.00;58.70
41533;DHT22;27262;-35.248;149.138;2023-03-01T03:11:55;25.00;58.50
41533;DHT22;27262;-35.248;149.138;2023-03-01T03:14:26;25.00;58.50
41533;DHT22;27262;-35.248;149.138;2023-03-01T03:16:56;25.00;58.60
41533;DHT22;27262;-35.248;149.138;2023-03-01T03:19:26;24.90;58.60
41533;DHT22;27262;-35.248;149.138;2023-03-01T03:21:56;25.00;58.70
41533;DHT22;27262;-35.248;149.138;2023-03-01T03:24:27;25.00;58.80
41533;DHT22;27262;-35.248;149.138;2023-03-01T03:27:07;25.00;58.90
41533;DHT22;27262;-35.248;149.138;2023-03-01T03:29:38;25.00;58.90
41533;DHT22;27262;-35.248;149.138;2023-03-01T03:32:08;25.00;58.90
41533;DHT22;27262;-35.248;149.138;2023-03-01T03:34:39;25.00;58.90
41533;DHT22;27262;-35.248;149.138;2023-03-01T03:37:09;25.00;59.00
41533;DHT22;27262;-35.248;149.138;2023-03-01T03:39:59;25.00;59.00
41533;DHT22;27262;-35.248;149.138;2023-03-01T03:42:30;25.00;59.20
41533;DHT22;27262;-35.248;149.138;2023-03-01T03:45:01;25.00;59.20
41533;DHT22;27262;-35.248;149.138;2023-03-01T03:47:31;25.10;59.20
41533;DHT22;27262;-35.248;149.138;2023-03-01T03:50:01;25.10;59.30
41533;DHT22;27262;-35.248;149.138;2023-03-01T03:52:31;25.10;59.30
41533;DHT22;27262;-35.248;149.138;2023-03-01T03:55:01;25.10;59.30
41533;DHT22;27262;-35.248;149.138;2023-03-01T03:57:32;25.10;59.30
41533;DHT22;27262;-35.248;149.138;2023-03-01T04:00:03;25.10;59.30
41533;DHT22;27262;-35.248;149.138;2023-03-01T04:02:34;25.10;59.30
41533;DHT22;27262;-35.248;149.138;2023-03-01T04:05:09;25.10;59.30
41533;DHT22;27262;-35.248;149.138;2023-03-01T04:07:40;25.10;59.30
41533;DHT22;27262;-35.248;149.138;2023-03-01T04:10:16;25.20;59.30
41533;DHT22;27262;-35.248;149.138;2023-03-01T04:12:47;25.20;59.40
41533;DHT22;27262;-35.248;149.138;2023-03-01T04:15:17;25.20;59.40
41533;DHT22;27262;-35.248;149.138;2023-03-01T04:17:48;25.20;59.40
41533;DHT22;27262;-35.248;149.138;2023-03-01T04:20:22;25.20;59.50
41533;DHT22;27262;-35.248;149.138;2023-03-01T04:23:11;25.20;59.50
41533;DHT22;27262;-35.248;149.138;2023-03-01T04:25:53;25.20;59.40
41533;DHT22;27262;-35.248;149.138;2023-03-01T04:31:05;25.30;59.60
41533;DHT22;27262;-35.248;149.138;2023-03-01T04:33:51;25.20;59.50
41533;DHT22;27262;-35.248;149.138;2023-03-01T04:36:26;25.30;59.50
41533;DHT22;27262;-35.248;149.138;2023-03-01T04:38:58;25.30;59.50
41533;DHT22;27262;-35.248;149.138;2023-03-01T04:41:28;25.30;59.50
41533;DHT22;27262;-35.248;149.138;2023-03-01T04:43:58;25.30;59.50
41533;DHT22;27262;-35.248;149.138;2023-03-01T04:46:29;25.30;59.50
41533;DHT22;27262;-35.248;149.138;2023-03-01T04:49:00;25.30;59.50
41533;DHT22;27262;-35.248;149.138;2023-03-01T04:51:31;25.30;59.50
41533;DHT22;27262;-35.248;149.138;2023-03-01T04:54:04;25.30;59.50
41533;DHT22;27262;-35.248;149.138;2023-03-01T04:56:38;25.30;59.50
41533;DHT22;27262;-35.248;149.138;2023-03-01T04:59:08;25.40;59.50
41533;DHT22;27262;-35.248;149.138;2023-03-01T05:01:39;25.40;59.50
41533;DHT22;27262;-35.248;149.138;2023-03-01T05:04:12;25.40;59.60
41533;DHT22;27262;-35.248;149.138;2023-03-01T05:06:43;25.40;59.60
41533;DHT22;27262;-35.248;149.138;2023-03-01T05:09:14;25.50;59.70
41533;DHT22;27262;-35.248;149.138;2023-03-01T05:11:44;25.50;59.60
41533;DHT22;27262;-35.248;149.138;2023-03-01T05:14:14;25.40;59.50
41533;DHT22;27262;-35.248;149.138;2023-03-01T05:16:44;25.40;59.50
41533;DHT22;27262;-35.248;149.138;2023-03-01T05:19:15;25.50;59.60
41533;DHT22;27262;-35.248;149.138;2023-03-01T05:21:45;25.50;59.60
41533;DHT22;27262;-35.248;149.138;2023-03-01T05:24:35;25.50;59.60
41533;DHT22;27262;-35.248;149.138;2023-03-01T05:27:05;25.50;59.60
41533;DHT22;27262;-35.248;149.138;2023-03-01T05:29:35;25.50;59.60
41533;DHT22;27262;-35.248;149.138;2023-03-01T05:32:06;25.50;59.60
41533;DHT22;27262;-35.248;149.138;2023-03-01T05:34:38;25.50;59.60
41533;DHT22;27262;-35.248;149.138;2023-03-01T05:37:08;25.50;59.60
41533;DHT22;27262;-35.248;149.138;2023-03-01T05:39:40;25.50;59.60
41533;DHT22;27262;-35.248;149.138;2023-03-01T05:42:11;25.50;59.60
41533;DHT22;27262;-35.248;149.138;2023-03-01T05:44:42;25.50;59.60
41533;DHT22;27262;-35.248;149.138;2023-03-01T05:47:12;25.50;59.60
41533;DHT22;27262;-35.248;149.138;2023-03-01T05:49:42;25.50;59.60
41533;DHT22;27262;-35.248;149.138;2023-03-01T05:52:12;25.50;59.60
41533;DHT22;27262;-35.248;149.138;2023-03-01T05:54:43;25.50;59.50
41533;DHT22;27262;-35.248;149.138;2023-03-01T05:57:13;25.50;59.60
41533;DHT22;27262;-35.248;149.138;2023-03-01T05:59:45;25.50;59.60
41533;DHT22;27262;-35.248;149.138;2023-03-01T06:02:15;25.50;59.60
41533;DHT22;27262;-35.248;149.138;2023-03-01T06:04:45;25.50;59.60
41533;DHT22;27262;-35.248;149.138;2023-03-01T06:07:16;25.50;59.70
41533;DHT22;27262;-35.248;149.138;2023-03-01T06:09:46;25.50;59.70
41533;DHT22;27262;-35.248;149.138;2023-03-01T06:12:17;25.50;59.70
41533;DHT22;27262;-35.248;149.138;2023-03-01T06:14:47;25.50;59.70
41533;DHT22;27262;-35.248;149.138;2023-03-01T06:17:17;25.50;60.40
41533;DHT22;27262;-35.248;149.138;2023-03-01T06:19:48;25.50;59.70
41533;DHT22;27262;-35.248;149.138;2023-03-01T06:22:18;25.50;59.70
41533;DHT22;27262;-35.248;149.138;2023-03-01T06:24:48;25.50;59.70
41533;DHT22;27262;-35.248;149.138;2023-03-01T06:27:19;25.50;59.70
41533;DHT22;27262;-35.248;149.138;2023-03-01T06:29:49;25.50;59.70
41533;DHT22;27262;-35.248;149.138;2023-03-01T06:32:19;25.50;59.60
41533;DHT22;27262;-35.248;149.138;2023-03-01T06:34:50;25.50;60.30
41533;DHT22;27262;-35.248;149.138;2023-03-01T06:37:20;25.50;59.70
41533;DHT22;27262;-35.248;149.138;2023-03-01T06:39:50;25.50;59.70
41533;DHT22;27262;-35.248;149.138;2023-03-01T06:42:21;25.50;59.70
41533;DHT22;27262;-35.248;149.138;2023-03-01T06:44:51;25.50;59.70
41533;DHT22;27262;-35.248;149.138;2023-03-01T06:47:21;25.50;59.70
41533;DHT22;27262;-35.248;149.138;2023-03-01T06:49:52;25.50;59.70
41533;DHT22;27262;-35.248;149.138;2023-03-01T06:52:22;25.50;59.70
41533;DHT22;27262;-35.248;149.138;2023-03-01T06:54:52;25.50;59.90
41533;DHT22;27262;-35.248;149.138;2023-03-01T06:57:22;25.50;60.00
41533;DHT22;27262;-35.248;149.138;2023-03-01T06:59:53;25.60;60.10
41533;DHT22;27262;-35.248;149.138;2023-03-01T07:02:23;25.50;60.10
41533;DHT22;27262;-35.248;149.138;2023-03-01T07:04:54;25.50;60.00
41533;DHT22;27262;-35.248;149.138;2023-03-01T07:07:24;25.50;60.00
41533;DHT22;27262;-35.248;149.138;2023-03-01T07:09:55;25.50;60.00
41533;DHT22;27262;-35.248;149.138;2023-03-01T07:12:25;25.50;60.00
41533;DHT22;27262;-35.248;149.138;2023-03-01T07:14:55;25.50;60.10
41533;DHT22;27262;-35.248;149.138;2023-03-01T07:17:25;25.50;60.20
41533;DHT22;27262;-35.248;149.138;2023-03-01T07:19:56;25.50;60.30
41533;DHT22;27262;-35.248;149.138;2023-03-01T07:22:26;25.50;60.30
41533;DHT22;27262;-35.248;149.138;2023-03-01T07:24:57;25.50;60.30
41533;DHT22;27262;-35.248;149.138;2023-03-01T07:27:27;25.50;60.30
41533;DHT22;27262;-35.248;149.138;2023-03-01T07:29:57;25.50;60.40
41533;DHT22;27262;-35.248;149.138;2023-03-01T07:32:27;25.50;60.40
41533;DHT22;27262;-35.248;149.138;2023-03-01T07:34:58;25.50;60.40
41533;DHT22;27262;-35.248;149.138;2023-03-01T07:37:28;25.50;60.40
41533;DHT22;27262;-35.248;149.138;2023-03-01T07:39:58;25.50;60.40
41533;DHT22;27262;-35.248;149.138;2023-03-01T07:42:28;25.50;60.50
41533;DHT22;27262;-35.248;149.138;2023-03-01T07:44:59;25.50;60.50
41533;DHT22;27262;-35.248;149.138;2023-03-01T07:47:29;25.50;60.50
41533;DHT22;27262;-35.248;149.138;2023-03-01T07:49:59;25.50;60.60
41533;DHT22;27262;-35.248;149.138;2023-03-01T07:52:30;25.50;60.60
41533;DHT22;27262;-35.248;149.138;2023-03-01T07:55:00;25.50;60.60
41533;DHT22;27262;-35.248;149.138;2023-03-01T07:57:31;25.50;60.60
41533;DHT22;27262;-35.248;149.138;2023-03-01T08:00:01;25.50;60.60
41533;DHT22;27262;-35.248;149.138;2023-03-01T08:02:32;25.50;60.60
41533;DHT22;27262;-35.248;149.138;2023-03-01T08:05:02;25.40;60.60
41533;DHT22;27262;-35.248;149.138;2023-03-01T08:07:33;25.50;60.70
41533;DHT22;27262;-35.248;149.138;2023-03-01T08:10:04;25.50;60.70
41533;DHT22;27262;-35.248;149.138;2023-03-01T08:12:34;25.50;60.70
41533;DHT22;27262;-35.248;149.138;2023-03-01T08:15:05;25.40;60.70
41533;DHT22;27262;-35.248;149.138;2023-03-01T08:17:35;25.40;60.70
41533;DHT22;27262;-35.248;149.138;2023-03-01T08:20:06;25.40;60.70
41533;DHT22;27262;-35.248;149.138;2023-03-01T08:22:37;25.40;60.70
41533;DHT22;27262;-35.248;149.138;2023-03-01T08:25:07;25.40;60.70
41533;DHT22;27262;-35.248;149.138;2023-03-01T08:27:38;25.40;60.70
41533;DHT22;27262;-35.248;149.138;2023-03-01T08:30:09;25.40;60.70
41533;DHT22;27262;-35.248;149.138;2023-03-01T08:32:40;25.40;60.70
41533;DHT22;27262;-35.248;149.138;2023-03-01T08:35:10;25.40;60.70
41533;DHT22;27262;-35.248;149.138;2023-03-01T08:37:40;25.40;60.70
41533;DHT22;27262;-35.248;149.138;2023-03-01T08:40:12;25.40;60.70
41533;DHT22;27262;-35.248;149.138;2023-03-01T08:42:43;25.40;60.70
41533;DHT22;27262;-35.248;149.138;2023-03-01T08:45:13;25.40;60.70
41533;DHT22;27262;-35.248;149.138;2023-03-01T08:47:47;25.40;60.70
41533;DHT22;27262;-35.248;149.138;2023-03-01T08:50:17;25.30;60.60
41533;DHT22;27262;-35.248;149.138;2023-03-01T08:52:48;25.30;60.60
41533;DHT22;27262;-35.248;149.138;2023-03-01T08:55:18;25.30;60.60
41533;DHT22;27262;-35.248;149.138;2023-03-01T08:57:48;25.30;60.70
41533;DHT22;27262;-35.248;149.138;2023-03-01T09:00:19;25.30;60.70
41533;DHT22;27262;-35.248;149.138;2023-03-01T09:02:49;25.30;60.80
41533;DHT22;27262;-35.248;149.138;2023-03-01T09:05:19;25.30;60.70
41533;DHT22;27262;-35.248;149.138;2023-03-01T09:07:50;25.30;60.70
41533;DHT22;27262;-35.248;149.138;2023-03-01T09:10:20;25.30;60.70
41533;DHT22;27262;-35.248;149.138;2023-03-01T09:12:51;25.30;60.80
41533;DHT22;27262;-35.248;149.138;2023-03-01T09:15:22;25.30;60.80
41533;DHT22;27262;-35.248;149.138;2023-03-01T09:17:52;25.30;60.80
41533;DHT22;27262;-35.248;149.138;2023-03-01T09:20:22;25.30;60.90
41533;DHT22;27262;-35.248;149.138;2023-03-01T09:22:52;25.30;60.90
41533;DHT22;27262;-35.248;149.138;2023-03-01T09:25:23;25.30;60.80
41533;DHT22;27262;-35.248;149.138;2023-03-01T09:27:54;25.20;60.80
41533;DHT22;27262;-35.248;149.138;2023-03-01T09:30:25;25.30;60.90
41533;DHT22;27262;-35.248;149.138;2023-03-01T09:32:57;25.30;60.90
41533;DHT22;27262;-35.248;149.138;2023-03-01T09:35:27;25.20;60.80
41533;DHT22;27262;-35.248;149.138;2023-03-01T09:37:58;25.20;60.80
41533;DHT22;27262;-35.248;149.138;2023-03-01T09:40:29;25.20;60.80
41533;DHT22;27262;-35.248;149.138;2023-03-01T09:43:13;25.20;60.80
41533;DHT22;27262;-35.248;149.138;2023-03-01T09:45:47;25.20;60.80
41533;DHT22;27262;-35.248;149.138;2023-03-01T09:48:26;25.20;60.80
41533;DHT22;27262;-35.248;149.138;2023-03-01T09:50:57;25.20;60.80
41533;DHT22;27262;-35.248;149.138;2023-03-01T09:53:33;25.20;60.80
41533;DHT22;27262;-35.248;149.138;2023-03-01T10:01:32;25.20;60.70
41533;DHT22;27262;-35.248;149.138;2023-03-01T10:07:43;25.20;60.80
41533;DHT22;27262;-35.248;149.138;2023-03-01T10:10:27;25.20;60.90
41533;DHT22;27262;-35.248;149.138;2023-03-01T10:12:58;25.10;60.80
41533;DHT22;27262;-35.248;149.138;2023-03-01T10:15:44;25.10;60.90
41533;DHT22;27262;-35.248;149.138;2023-03-01T10:18:22;25.20;60.90
41533;DHT22;27262;-35.248;149.138;2023-03-01T10:21:19;25.20;60.80
41533;DHT22;27262;-35.248;149.138;2023-03-01T10:23:51;25.10;60.70
41533;DHT22;27262;-35.248;149.138;2023-03-01T10:26:51;25.10;60.90
41533;DHT22;27262;-35.248;149.138;2023-03-01T10:30:05;25.20;60.80
41533;DHT22;27262;-35.248;149.138;2023-03-01T10:32:40;25.10;60.70
41533;DHT22;27262;-35.248;149.138;2023-03-01T10:35:28;25.10;61.00
41533;DHT22;27262;-35.248;149.138;2023-03-01T10:38:06;25.10;60.70
41533;DHT22;27262;-35.248;149.138;2023-03-01T10:40:49;25.00;60.90
41533;DHT22;27262;-35.248;149.138;2023-03-01T10:43:20;25.10;60.90
41533;DHT22;27262;-35.248;149.138;2023-03-01T10:45:51;25.00;60.80
41533;DHT22;27262;-35.248;149.138;2023-03-01T10:48:24;25.10;60.90
41533;DHT22;27262;-35.248;149.138;2023-03-01T10:53:37;25.00;60.70
41533;DHT22;27262;-35.248;149.138;2023-03-01T10:56:13;25.00;60.70
41533;DHT22;27262;-35.248;149.138;2023-03-01T10:59:01;25.00;60.70
41533;DHT22;27262;-35.248;149.138;2023-03-01T11:01:36;25.00;60.70
41533;DHT22;27262;-35.248;149.138;2023-03-01T11:06:41;25.00;60.90
41533;DHT22;27262;-35.248;149.138;2023-03-01T11:09:21;25.00;60.90
41533;DHT22;27262;-35.248;149.138;2023-03-01T11:11:56;25.00;60.90
41533;DHT22;27262;-35.248;149.138;2023-03-01T11:14:37;25.00;60.90
41533;DHT22;27262;-35.248;149.138;2023-03-01T11:17:29;25.00;60.80
41533;DHT22;27262;-35.248;149.138;2023-03-01T11:22:53;25.00;60.90
41533;DHT22;27262;-35.248;149.138;2023-03-01T11:25:26;25.00;60.70
41533;DHT22;27262;-35.248;149.138;2023-03-01T11:28:00;24.90;60.80
41533;DHT22;27262;-35.248;149.138;2023-03-01T11:30:39;24.90;60.80
41533;DHT22;27262;-35.248;149.138;2023-03-01T11:33:18;24.90;60.80
41533;DHT22;27262;-35.248;149.138;2023-03-01T11:36:22;24.90;60.70
41533;DHT22;27262;-35.248;149.138;2023-03-01T11:38:55;24.90;60.60
41533;DHT22;27262;-35.248;149.138;2023-03-01T11:41:31;24.90;60.90
41533;DHT22;27262;-35.248;149.138;2023-03-01T11:44:18;24.90;60.80
41533;DHT22;27262;-35.248;149.138;2023-03-01T11:47:29;24.90;60.70
41533;DHT22;27262;-35.248;149.138;2023-03-01T11:50:17;24.90;60.70
41533;DHT22;27262;-35.248;149.138;2023-03-01T11:56:11;24.90;60.70
41533;DHT22;27262;-35.248;149.138;2023-03-01T12:07:00;24.90;60.70
41533;DHT22;27262;-35.248;149.138;2023-03-01T12:24:39;24.80;60.60
41533;DHT22;27262;-35.248;149.138;2023-03-01T12:30:06;24.80;60.70
41533;DHT22;27262;-35.248;149.138;2023-03-01T12:49:33;24.70;60.60
41533;DHT22;27262;-35.248;149.138;2023-03-01T12:54:57;24.70;60.50
41533;DHT22;27262;-35.248;149.138;2023-03-01T12:57:41;24.70;60.70
41533;DHT22;27262;-35.248;149.138;2023-03-01T13:00:38;24.70;60.60
41533;DHT22;27262;-35.248;149.138;2023-03-01T13:09:35;24.60;60.60
41533;DHT22;27262;-35.248;149.138;2023-03-01T13:12:51;24.60;60.60
41533;DHT22;27262;-35.248;149.138;2023-03-01T13:15:26;24.60;60.60
41533;DHT22;27262;-35.248;149.138;2023-03-01T13:20:33;24.60;60.70
41533;DHT22;27262;-35.248;149.138;2023-03-01T13:26:17;24.60;60.70
41533;DHT22;27262;-35.248;149.138;2023-03-01T13:28:51;24.60;60.60
41533;DHT22;27262;-35.248;149.138;2023-03-01T13:34:02;24.50;60.70
41533;DHT22;27262;-35.248;149.138;2023-03-01T13:39:30;24.50;60.60
41533;DHT22;27262;-35.248;149.138;2023-03-01T13:42:03;24.60;60.60
41533;DHT22;27262;-35.248;149.138;2023-03-01T13:47:16;24.50;60.60
41533;DHT22;27262;-35.248;149.138;2023-03-01T13:50:02;24.50;60.60
41533;DHT22;27262;-35.248;149.138;2023-03-01T13:53:06;24.50;60.60
41533;DHT22;27262;-35.248;149.138;2023-03-01T13:55:48;24.50;60.60
41533;DHT22;27262;-35.248;149.138;2023-03-01T13:58:31;24.40;60.60
41533;DHT22;27262;-35.248;149.138;2023-03-01T14:01:06;24.50;60.70
41533;DHT22;27262;-35.248;149.138;2023-03-01T14:03:41;24.50;60.70
41533;DHT22;27262;-35.248;149.138;2023-03-01T14:06:24;24.40;60.60
41533;DHT22;27262;-35.248;149.138;2023-03-01T14:09:22;24.50;60.70
41533;DHT22;27262;-35.248;149.138;2023-03-01T14:12:11;24.40;60.60
41533;DHT22;27262;-35.248;149.138;2023-03-01T14:20:37;24.40;60.60
41533;DHT22;27262;-35.248;149.138;2023-03-01T14:23:12;24.40;60.80
41533;DHT22;27262;-35.248;149.138;2023-03-01T14:26:01;24.40;61.50
41533;DHT22;27262;-35.248;149.138;2023-03-01T14:28:33;24.40;60.70
41533;DHT22;27262;-35.248;149.138;2023-03-01T14:34:00;24.30;60.60
41533;DHT22;27262;-35.248;149.138;2023-03-01T14:36:33;24.30;60.70
41533;DHT22;27262;-35.248;149.138;2023-03-01T14:39:23;24.30;60.70
41533;DHT22;27262;-35.248;149.138;2023-03-01T14:41:54;24.30;60.60
41533;DHT22;27262;-35.248;149.138;2023-03-01T14:44:31;24.30;60.80
41533;DHT22;27262;-35.248;149.138;2023-03-01T14:47:10;24.30;60.70
41533;DHT22;27262;-35.248;149.138;2023-03-01T14:49:41;24.30;60.70
41533;DHT22;27262;-35.248;149.138;2023-03-01T14:52:31;24.30;60.70
41533;DHT22;27262;-35.248;149.138;2023-03-01T14:55:42;24.30;60.70
41533;DHT22;27262;-35.248;149.138;2023-03-01T14:58:14;24.30;60.80
41533;DHT22;27262;-35.248;149.138;2023-03-01T15:01:17;24.30;60.80
41533;DHT22;27262;-35.248;149.138;2023-03-01T15:03:49;24.30;60.70
41533;DHT22;27262;-35.248;149.138;2023-03-01T15:06:22;24.20;60.90
41533;DHT22;27262;-35.248;149.138;2023-03-01T15:08:54;24.20;60.90
41533;DHT22;27262;-35.248;149.138;2023-03-01T15:11:31;24.20;60.90
41533;DHT22;27262;-35.248;149.138;2023-03-01T15:14:01;24.20;60.90
41533;DHT22;27262;-35.248;149.138;2023-03-01T15:16:51;24.20;60.90
41533;DHT22;27262;-35.248;149.138;2023-03-01T15:19:24;24.10;60.90
41533;DHT22;27262;-35.248;149.138;2023-03-01T15:21:56;24.20;60.90
41533;DHT22;27262;-35.248;149.138;2023-03-01T15:24:28;24.20;61.00
41533;DHT22;27262;-35.248;149.138;2023-03-01T15:27:02;24.20;61.00
41533;DHT22;27262;-35.248;149.138;2023-03-01T15:29:36;24.10;60.90
41533;DHT22;27262;-35.248;149.138;2023-03-01T15:34:56;24.20;61.00
41533;DHT22;27262;-35.248;149.138;2023-03-01T15:37:47;24.10;61.00
41533;DHT22;27262;-35.248;149.138;2023-03-01T15:40:29;24.10;60.90
41533;DHT22;27262;-35.248;149.138;2023-03-01T15:43:04;24.10;61.00
41533;DHT22;27262;-35.248;149.138;2023-03-01T15:45:35;24.10;61.10
41533;DHT22;27262;-35.248;149.138;2023-03-01T15:48:19;24.10;61.10
41533;DHT22;27262;-35.248;149.138;2023-03-01T15:51:00;24.10;61.00
41533;DHT22;27262;-35.248;149.138;2023-03-01T15:53:31;24.10;61.00
41533;DHT22;27262;-35.248;149.138;2023-03-01T15:56:04;24.10;61.10
41533;DHT22;27262;-35.248;149.138;2023-03-01T15:58:36;24.10;61.10
41533;DHT22;27262;-35.248;149.138;2023-03-01T16:01:14;24.10;61.20
41533;DHT22;27262;-35.248;149.138;2023-03-01T16:03:48;24.10;61.10
41533;DHT22;27262;-35.248;149.138;2023-03-01T16:06:19;24.10;61.20
41533;DHT22;27262;-35.248;149.138;2023-03-01T16:08:49;24.00;61.10
41533;DHT22;27262;-35.248;149.138;2023-03-01T16:11:20;24.10;61.20
41533;DHT22;27262;-35.248;149.138;2023-03-01T16:13:51;24.00;61.20
41533;DHT22;27262;-35.248;149.138;2023-03-01T16:16:21;24.00;61.20
41533;DHT22;27262;-35.248;149.138;2023-03-01T16:18:52;24.00;61.20
41533;DHT22;27262;-35.248;149.138;2023-03-01T16:21:25;24.00;61.20
41533;DHT22;27262;-35.248;149.138;2023-03-01T16:23:56;24.00;61.20
41533;DHT22;27262;-35.248;149.138;2023-03-01T16:26:26;24.00;61.20
41533;DHT22;27262;-35.248;149.138;2023-03-01T16:28:57;24.00;61.30
41533;DHT22;27262;-35.248;149.138;2023-03-01T16:31:28;24.00;61.30
41533;DHT22;27262;-35.248;149.138;2023-03-01T16:33:59;24.00;61.30
41533;DHT22;27262;-35.248;149.138;2023-03-01T16:36:31;24.00;61.30
41533;DHT22;27262;-35.248;149.138;2023-03-01T16:39:01;24.00;62.10
41533;DHT22;27262;-35.248;149.138;2023-03-01T16:41:32;24.00;61.30
41533;DHT22;27262;-35.248;149.138;2023-03-01T16:44:03;23.90;61.30
41533;DHT22;27262;-35.248;149.138;2023-03-01T16:46:33;23.90;61.30
41533;DHT22;27262;-35.248;149.138;2023-03-01T16:49:03;23.90;61.30
41533;DHT22;27262;-35.248;149.138;2023-03-01T16:51:34;23.90;61.30
41533;DHT22;27262;-35.248;149.138;2023-03-01T16:54:05;23.90;61.40
41533;DHT22;27262;-35.248;149.138;2023-03-01T16:56:35;23.90;61.30
41533;DHT22;27262;-35.248;149.138;2023-03-01T16:59:07;23.90;61.40
41533;DHT22;27262;-35.248;149.138;2023-03-01T17:01:38;23.90;61.40
41533;DHT22;27262;-35.248;149.138;2023-03-01T17:04:11;23.90;61.40
41533;DHT22;27262;-35.248;149.138;2023-03-01T17:06:42;23.90;61.40
41533;DHT22;27262;-35.248;149.138;2023-03-01T17:09:12;23.90;61.40
41533;DHT22;27262;-35.248;149.138;2023-03-01T17:11:43;23.90;61.40
41533;DHT22;27262;-35.248;149.138;2023-03-01T17:14:13;23.80;61.40
41533;DHT22;27262;-35.248;149.138;2023-03-01T17:16:45;23.90;61.40